Time;durP1;ratioP1;P1;durP2;ratioP2;P2;SDS_P1;SDS_P2;PMS_P1;PMS_P2;Temp;Humidity;BMP_temperature;BMP_pressure;BME280_temperature;BME280_humidity;BME280_pressure;Samples;Min_cycle;Max_cycle;Signal;HPM_P1;HPM_P2
2022/11/01 05:11:55;;;;;;;15.23;12.90;;;16.70;99.90;;;;;;4591107;19;20014;-27
2022/11/01 05:13:26;;;;;;;15.70;12.23;;;16.70;99.90;;;;;;4589599;19;20354;-27
2022/11/01 05:14:57;;;;;;;14.70;12.27;;;16.70;99.90;;;;;;4593035;19;20026;-27
2022/11/01 05:16:30;;;;;;;15.25;13.40;;;16.70;99.90;;;;;;4593012;19;20011;-27
2022/11/01 05:18:01;;;;;;;14.98;12.85;;;16.80;99.90;;;;;;4591966;19;20025;-27
2022/11/01 05:19:33;;;;;;;;;;;16.80;99.90;;;;;;4594227;19;20015;-27
2022/11/01 05:21:04;;;;;;;15.40;12.57;;;16.80;99.90;;;;;;4592649;19;19992;-27
2022/11/01 05:22:36;;;;;;;15.07;12.75;;;16.80;99.90;;;;;;4593622;19;20435;-27
2022/11/01 05:24:08;;;;;;;15.82;12.13;;;16.80;99.90;;;;;;4590735;19;20066;-27
2022/11/01 05:25:40;;;;;;;;;;;16.80;99.90;;;;;;4591777;19;20736;-27
2022/11/01 05:27:11;;;;;;;15.43;12.20;;;16.80;99.90;;;;;;4592694;19;20242;-27
2022/11/01 05:28:42;;;;;;;13.70;11.30;;;16.80;99.90;;;;;;4591433;19;20007;-27
2022/11/01 05:30:14;;;;;;;12.75;11.43;;;16.70;99.90;;;;;;4590141;19;20039;-27
2022/11/01 05:31:45;;;;;;;14.32;12.02;;;16.70;99.90;;;;;;4591972;19;20021;-27
2022/11/01 05:33:15;;;;;;;14.38;11.80;;;16.70;99.90;;;;;;4591515;19;20449;-27
2022/11/01 05:34:48;;;;;;;12.70;10.57;;;16.70;99.90;;;;;;4592326;19;20015;-27
2022/11/01 05:36:19;;;;;;;14.48;12.13;;;16.70;99.90;;;;;;4567994;19;20559;-26
2022/11/01 05:37:51;;;;;;;16.08;13.65;;;16.70;99.90;;;;;;4590200;19;20342;-26
2022/11/01 05:39:23;;;;;;;16.60;14.25;;;15.50;99.90;;;;;;4592992;19;20587;-26
2022/11/01 05:40:54;;;;;;;15.93;13.93;;;14.90;99.90;;;;;;4592680;19;20014;-26
2022/11/01 05:42:26;;;;;;;;;;;14.60;99.90;;;;;;4589242;19;20363;-26
2022/11/01 05:43:57;;;;;;;17.88;14.70;;;14.50;99.90;;;;;;4591147;19;19918;-27
2022/11/01 05:45:28;;;;;;;19.00;15.93;;;14.40;99.90;;;;;;4591741;19;20011;-27
2022/11/01 05:47:03;;;;;;;19.20;16.67;;;14.40;99.90;;;;;;4590907;19;20361;-27
2022/11/01 05:48:35;;;;;;;18.60;16.08;;;14.40;99.90;;;;;;4591451;19;20008;-26
2022/11/01 05:50:08;;;;;;;19.25;15.95;;;14.40;99.90;;;;;;4591005;19;20029;-26
2022/11/01 05:51:39;;;;;;;20.33;16.80;;;14.40;99.90;;;;;;4592008;19;20018;-26
2022/11/01 05:53:10;;;;;;;18.20;15.52;;;14.40;99.90;;;;;;4589324;19;20044;-27
2022/11/01 05:54:43;;;;;;;19.47;16.57;;;14.40;99.90;;;;;;4591701;19;20022;-26
2022/11/01 05:56:14;;;;;;;19.25;15.82;;;14.30;99.90;;;;;;4591823;19;20479;-26
2022/11/01 05:57:47;;;;;;;17.97;15.00;;;14.30;99.90;;;;;;4591940;19;20096;-26
2022/11/01 05:59:18;;;;;;;19.77;16.10;;;14.30;99.90;;;;;;4589974;19;20078;-26
2022/11/01 06:00:49;;;;;;;19.90;16.48;;;14.30;99.90;;;;;;4590974;19;20018;-26
2022/11/01 06:02:21;;;;;;;19.65;16.25;;;14.30;99.90;;;;;;4592109;19;20018;-27
2022/11/01 06:03:52;;;;;;;19.30;16.40;;;14.30;99.90;;;;;;4591330;19;20361;-27
2022/11/01 06:05:24;;;;;;;17.75;15.07;;;14.30;99.90;;;;;;4590457;19;20014;-27
2022/11/01 06:06:56;;;;;;;19.95;16.38;;;14.30;99.90;;;;;;4591637;19;20390;-27
2022/11/01 06:08:27;;;;;;;20.85;17.17;;;14.30;99.90;;;;;;4592028;19;20027;-27
2022/11/01 06:09:58;;;;;;;18.35;15.70;;;14.30;99.90;;;;;;4589369;19;20021;-27
2022/11/01 06:11:29;;;;;;;19.42;16.27;;;14.30;99.90;;;;;;4589051;19;20437;-27
2022/11/01 06:13:40;;;;;;;17.48;15.00;;;14.30;99.90;;;;;;4588729;19;20022;-27
2022/11/01 06:15:11;;;;;;;19.77;15.70;;;14.30;99.90;;;;;;4590945;19;20007;-27
2022/11/01 06:16:44;;;;;;;;;;;14.20;99.90;;;;;;4591547;19;20018;-27
2022/11/01 06:18:16;;;;;;;20.30;16.20;;;14.20;99.90;;;;;;4590985;19;19918;-27
2022/11/01 06:19:47;;;;;;;20.87;15.57;;;14.20;99.90;;;;;;4590518;19;20014;-27
2022/11/01 06:21:21;;;;;;;16.02;13.93;;;14.20;99.90;;;;;;4592420;19;20014;-27
2022/11/01 06:22:52;;;;;;;18.07;15.27;;;14.20;99.90;;;;;;4590022;19;20392;-27
2022/11/01 06:24:23;;;;;;;;;;;14.20;99.90;;;;;;4591761;19;20017;-27
2022/11/01 06:26:00;;;;;;;19.45;16.80;;;14.20;99.90;;;;;;4589591;19;19940;-27
2022/11/01 06:27:32;;;;;;;16.63;13.27;;;14.20;99.90;;;;;;4589549;19;20523;-27
2022/11/01 06:31:08;;;;;;;15.60;13.13;;;14.20;99.90;;;;;;4590623;19;20463;-27
2022/11/01 06:33:12;;;;;;;14.80;11.93;;;14.20;99.90;;;;;;4589591;19;20085;-27
2022/11/01 06:34:44;;;;;;;16.90;13.40;;;14.20;99.90;;;;;;4591189;19;20058;-29
2022/11/01 06:36:16;;;;;;;15.07;12.73;;;14.20;99.90;;;;;;4590818;19;20053;-27
2022/11/01 06:37:47;;;;;;;15.05;12.68;;;14.20;99.90;;;;;;4589626;19;20023;-27
2022/11/01 06:39:18;;;;;;;16.95;14.02;;;14.20;99.90;;;;;;4591604;19;20497;-27
2022/11/01 06:40:50;;;;;;;15.80;12.97;;;14.20;99.90;;;;;;4590504;19;20361;-27
2022/11/01 06:42:21;;;;;;;16.23;13.25;;;14.20;99.90;;;;;;4588473;19;20401;-27
2022/11/01 06:43:52;;;;;;;18.08;13.43;;;14.20;99.90;;;;;;4590727;19;20014;-27
2022/11/01 06:45:24;;;;;;;18.25;14.13;;;14.20;99.90;;;;;;4589622;19;20014;-27
2022/11/01 06:46:55;;;;;;;16.80;14.20;;;14.20;99.90;;;;;;4588584;19;20019;-27
2022/11/01 06:48:27;;;;;;;16.45;13.75;;;14.10;99.90;;;;;;4592084;19;20483;-27
2022/11/01 06:51:49;;;;;;;16.83;13.33;;;14.20;99.90;;;;;;4590965;19;19915;-27
2022/11/01 06:53:23;;;;;;;17.10;13.75;;;14.10;99.90;;;;;;4591341;19;20109;-27
2022/11/01 06:54:55;;;;;;;15.97;12.97;;;14.20;99.90;;;;;;4587864;19;20022;-27
2022/11/01 06:56:26;;;;;;;15.23;12.30;;;14.10;99.90;;;;;;4590724;19;20042;-27
2022/11/01 06:57:59;;;;;;;15.38;13.40;;;14.10;99.90;;;;;;4589023;19;20022;-27
2022/11/01 06:59:30;;;;;;;16.23;12.57;;;14.20;99.90;;;;;;4590951;19;20010;-27
2022/11/01 07:01:02;;;;;;;16.35;13.55;;;14.20;99.90;;;;;;4590451;19;20642;-27
2022/11/01 07:02:34;;;;;;;18.38;14.43;;;14.20;99.90;;;;;;4587228;19;20015;-27
2022/11/01 07:04:05;;;;;;;16.73;13.85;;;14.20;99.90;;;;;;4590855;19;20006;-28
2022/11/01 07:05:36;;;;;;;19.35;15.68;;;14.10;99.90;;;;;;4588511;19;20456;-27
2022/11/01 07:07:09;;;;;;;17.23;14.40;;;14.20;99.90;;;;;;4589896;19;20014;-27
2022/11/01 07:08:40;;;;;;;;;;;14.20;99.90;;;;;;4590874;19;20484;-27
2022/11/01 07:10:11;;;;;;;17.17;12.87;;;14.20;99.90;;;;;;4589594;19;19919;-27
2022/11/01 07:11:44;;;;;;;17.85;13.98;;;14.20;99.90;;;;;;4588399;19;20474;-27
2022/11/01 07:13:15;;;;;;;15.35;13.13;;;14.20;99.90;;;;;;4588964;19;20596;-27
2022/11/01 07:14:48;;;;;;;18.83;14.48;;;14.20;99.90;;;;;;4589589;19;20042;-27
2022/11/01 07:18:07;;;;;;;19.15;14.18;;;14.20;99.90;;;;;;4590581;19;20378;-26
2022/11/01 07:19:41;;;;;;;17.60;13.37;;;14.20;99.90;;;;;;4588517;19;20396;-26
2022/11/01 07:21:14;;;;;;;17.75;13.80;;;14.10;99.90;;;;;;4588636;19;20090;-27
2022/11/01 07:22:48;;;;;;;20.30;18.10;;;14.20;99.90;;;;;;4587500;19;20025;-26
2022/11/01 07:24:19;;;;;;;16.57;13.37;;;14.20;99.90;;;;;;4588334;19;20025;-26
2022/11/01 07:25:51;;;;;;;19.77;15.17;;;14.20;99.90;;;;;;4586583;19;20350;-27
2022/11/01 07:27:24;;;;;;;18.23;13.43;;;14.20;99.90;;;;;;4587399;19;20039;-26
2022/11/01 07:28:55;;;;;;;16.17;12.30;;;14.10;99.90;;;;;;4588724;19;20084;-27
2022/11/01 07:30:28;;;;;;;17.77;13.30;;;14.20;99.90;;;;;;4588159;19;20019;-27
2022/11/01 07:32:00;;;;;;;18.13;13.70;;;14.20;99.90;;;;;;4590634;19;20014;-27
2022/11/01 07:33:31;;;;;;;17.13;12.70;;;14.10;99.90;;;;;;4587743;19;20018;-27
2022/11/01 07:35:03;;;;;;;16.30;12.05;;;14.20;99.90;;;;;;4588916;19;20128;-27
2022/11/01 07:36:34;;;;;;;15.60;12.17;;;14.10;99.90;;;;;;4589850;19;20345;-26
2022/11/01 07:38:06;;;;;;;19.52;15.13;;;14.20;99.90;;;;;;4589393;19;20371;-26
2022/11/01 07:39:37;;;;;;;16.73;13.60;;;14.20;99.90;;;;;;4590587;19;20021;-26
2022/11/01 07:41:08;;;;;;;17.02;12.75;;;14.20;99.90;;;;;;4589344;19;20018;-26
2022/11/01 07:42:42;;;;;;;16.90;14.18;;;14.10;99.90;;;;;;4587032;19;20018;-26
2022/11/01 07:44:13;;;;;;;17.80;15.52;;;14.20;99.90;;;;;;4590141;19;20341;-26
2022/11/01 07:45:45;;;;;;;16.35;12.93;;;14.10;99.90;;;;;;4589718;19;20010;-26
2022/11/01 07:47:36;;;;;;;14.15;10.88;;;14.10;99.90;;;;;;4586984;19;20014;-26
2022/11/01 07:49:07;;;;;;;17.40;13.85;;;14.10;99.90;;;;;;4586145;19;20361;-26
2022/11/01 07:50:39;;;;;;;16.90;13.15;;;14.10;99.90;;;;;;4587726;19;20015;-26
2022/11/01 07:52:10;;;;;;;16.05;13.35;;;14.20;99.90;;;;;;4585993;19;20381;-26
2022/11/01 07:53:42;;;;;;;18.30;16.35;;;14.10;99.90;;;;;;4587967;19;20108;-26
2022/11/01 07:55:13;;;;;;;15.95;13.52;;;14.20;99.90;;;;;;4586807;19;20035;-26
2022/11/01 07:56:46;;;;;;;16.35;13.57;;;14.20;99.90;;;;;;4586867;19;20014;-26
2022/11/01 07:58:18;;;;;;;15.10;13.35;;;14.20;99.90;;;;;;4586151;19;20476;-27
2022/11/01 07:59:49;;;;;;;17.58;14.85;;;14.20;99.90;;;;;;4586576;19;20010;-27
2022/11/01 08:01:20;;;;;;;18.45;14.63;;;14.20;99.90;;;;;;4588322;19;20010;-27
2022/11/01 08:02:58;;;;;;;18.92;15.63;;;14.20;99.90;;;;;;4587062;19;20023;-25
2022/11/01 08:04:29;;;;;;;18.98;16.13;;;14.20;99.90;;;;;;4586764;19;20014;-27
2022/11/01 08:06:00;;;;;;;17.48;15.63;;;14.20;99.90;;;;;;4585475;19;20441;-26
2022/11/01 08:07:36;;;;;;;19.38;15.38;;;14.20;99.90;;;;;;4587583;19;20031;-26
2022/11/01 08:09:07;;;;;;;22.38;18.48;;;14.30;99.90;;;;;;4586945;19;20374;-26
2022/11/01 08:10:39;;;;;;;25.00;20.50;;;14.30;99.90;;;;;;4588002;19;20023;-26
2022/11/01 08:12:10;;;;;;;23.17;19.95;;;14.30;99.90;;;;;;4584285;19;20058;-26
2022/11/01 08:13:41;;;;;;;22.95;18.25;;;14.30;99.90;;;;;;4587699;19;20445;-25
2022/11/01 08:15:12;;;;;;;22.58;18.10;;;14.30;99.90;;;;;;4586898;19;20074;-26
2022/11/01 08:16:43;;;;;;;23.48;19.40;;;14.20;99.90;;;;;;4585610;19;20039;-26
2022/11/01 08:19:50;;;;;;;26.15;21.77;;;14.30;99.90;;;;;;4585936;19;20043;-26
2022/11/01 08:21:22;;;;;;;27.27;22.83;;;14.30;99.90;;;;;;4586654;19;20372;-26
2022/11/01 08:22:53;;;;;;;26.98;22.33;;;14.20;99.90;;;;;;4585358;19;20019;-26
2022/11/01 08:24:25;;;;;;;;;;;14.30;99.90;;;;;;4587015;19;20486;-26
2022/11/01 08:25:56;;;;;;;28.17;23.10;;;14.20;99.90;;;;;;4586266;19;19922;-26
2022/11/01 08:27:27;;;;;;;25.95;22.85;;;14.20;99.90;;;;;;4586009;19;20018;-26
2022/11/01 08:28:59;;;;;;;28.50;25.48;;;14.30;99.90;;;;;;4585746;19;20032;-26
2022/11/01 08:30:30;;;;;;;31.77;28.35;;;14.20;99.90;;;;;;4585927;19;20089;-26
2022/11/01 08:32:01;;;;;;;29.92;26.58;;;14.20;99.90;;;;;;4586152;19;20036;-25
2022/11/01 08:33:32;;;;;;;30.77;26.95;;;14.30;99.90;;;;;;4586027;19;20010;-26
2022/11/01 08:35:03;;;;;;;30.08;26.88;;;14.30;99.90;;;;;;4585136;19;20127;-27
2022/11/01 08:36:34;;;;;;;33.08;28.67;;;14.30;99.90;;;;;;4587117;19;20031;-26
2022/11/01 08:38:06;;;;;;;32.90;29.23;;;14.30;99.90;;;;;;4587175;19;20073;-26
2022/11/01 08:39:37;;;;;;;32.50;29.00;;;14.30;99.90;;;;;;4591186;19;20011;-26
2022/11/01 08:41:08;;;;;;;33.40;29.52;;;14.30;99.90;;;;;;4590079;19;20014;-27
2022/11/01 08:42:39;;;;;;;39.83;35.58;;;14.30;99.90;;;;;;4590583;19;20033;-26
2022/11/01 08:44:10;;;;;;;39.60;35.42;;;14.30;99.90;;;;;;4590349;19;20662;-26
2022/11/01 08:45:41;;;;;;;40.08;35.85;;;14.30;99.90;;;;;;4589835;19;20031;-26
2022/11/01 08:47:12;;;;;;;38.28;34.17;;;14.30;99.90;;;;;;4590804;19;20018;-27
2022/11/01 08:48:43;;;;;;;39.60;35.33;;;14.30;99.90;;;;;;4590654;19;20078;-26
2022/11/01 08:50:15;;;;;;;40.45;36.35;;;14.30;99.90;;;;;;4591712;19;20026;-26
2022/11/01 08:51:46;;;;;;;41.70;36.20;;;14.30;99.90;;;;;;4592303;19;20007;-24
2022/11/01 08:53:18;;;;;;;41.92;37.60;;;14.30;99.90;;;;;;4592743;19;20420;-26
2022/11/01 08:54:49;;;;;;;36.40;32.70;;;14.50;99.90;;;;;;4592345;19;20022;-26
2022/11/01 08:56:20;;;;;;;34.85;31.15;;;14.60;99.90;;;;;;4593052;19;20025;-27
2022/11/01 08:57:51;;;;;;;37.00;32.95;;;14.90;99.90;;;;;;4592653;19;20019;-27
2022/11/01 08:59:22;;;;;;;34.45;30.77;;;15.10;99.90;;;;;;4593540;19;20042;-27
2022/11/01 09:00:53;;;;;;;39.88;33.35;;;15.20;99.90;;;;;;4592537;19;20094;-27
2022/11/01 09:02:24;;;;;;;37.70;32.80;;;15.30;99.90;;;;;;4591539;19;20345;-27
2022/11/01 09:03:56;;;;;;;41.90;35.38;;;15.40;99.90;;;;;;4593551;19;20493;-27
2022/11/01 09:05:30;;;;;;;37.67;33.63;;;15.50;99.90;;;;;;4591381;19;20371;-27
2022/11/01 09:07:01;;;;;;;35.63;31.83;;;15.60;99.90;;;;;;4592615;19;20010;-28
2022/11/01 09:08:32;;;;;;;35.38;31.58;;;15.60;99.90;;;;;;4592127;19;20027;-27
2022/11/01 09:10:04;;;;;;;34.50;30.73;;;15.70;99.90;;;;;;4592492;19;20002;-25
2022/11/01 09:11:35;;;;;;;33.95;30.35;;;15.70;99.90;;;;;;4590081;19;20026;-27
2022/11/01 09:13:07;;;;;;;32.55;28.65;;;15.80;99.90;;;;;;4591618;19;20007;-27
2022/11/01 09:14:38;;;;;;;32.50;29.02;;;15.80;99.90;;;;;;4591149;19;20018;-27
2022/11/01 09:16:09;;;;;;;31.33;27.40;;;15.90;99.90;;;;;;4593345;19;20013;-28
2022/11/01 09:17:41;;;;;;;32.72;28.90;;;15.90;99.90;;;;;;4590531;19;20022;-26
2022/11/01 09:19:12;;;;;;;34.70;30.08;;;16.00;99.90;;;;;;4593546;19;20015;-26
2022/11/01 09:29:32;;;;;;;34.42;29.55;;;16.30;99.90;;;;;;4593050;19;20018;-28
2022/11/01 09:31:06;;;;;;;35.08;29.85;;;16.30;99.90;;;;;;4591969;19;20097;-26
2022/11/01 09:32:37;;;;;;;35.13;28.45;;;16.30;99.90;;;;;;4592995;19;20038;-26
2022/11/01 09:34:10;;;;;;;33.15;28.73;;;16.30;99.90;;;;;;4593295;19;20006;-27
2022/11/01 09:35:42;;;;;;;32.83;27.63;;;16.30;99.90;;;;;;4595172;19;20078;-28
2022/11/01 09:37:13;;;;;;;35.75;30.75;;;16.40;99.90;;;;;;4595139;19;20031;-27
2022/11/01 09:38:44;;;;;;;37.53;29.08;;;16.40;99.90;;;;;;4592986;19;20036;-27
2022/11/01 09:40:15;;;;;;;32.72;27.20;;;16.40;99.90;;;;;;4592046;19;20014;-27
2022/11/01 09:42:02;;;;;;;33.92;28.50;;;16.40;99.90;;;;;;4593264;19;20024;-27
2022/11/01 09:43:34;;;;;;;41.55;33.90;;;16.40;99.90;;;;;;4592159;19;20015;-27
2022/11/01 09:45:09;;;;;;;39.97;31.75;;;16.40;99.90;;;;;;4590959;19;20578;-27
2022/11/01 09:46:44;;;;;;;31.13;27.83;;;16.40;99.90;;;;;;4592421;19;20011;-27
2022/11/01 09:48:15;;;;;;;33.22;27.52;;;16.40;99.90;;;;;;4592814;19;20461;-27
2022/11/01 09:49:49;;;;;;;38.42;31.02;;;16.40;99.90;;;;;;4591434;19;20018;-26
2022/11/01 09:51:21;;;;;;;36.97;30.55;;;16.40;99.90;;;;;;4591030;19;20015;-27
2022/11/01 09:52:53;;;;;;;36.85;30.60;;;16.40;99.90;;;;;;4591335;19;20010;-28
2022/11/01 09:54:25;;;;;;;35.40;28.45;;;16.40;99.90;;;;;;4591629;19;20356;-27
2022/11/01 09:56:11;;;;;;;33.42;27.75;;;16.40;99.90;;;;;;4591688;19;20015;-27
2022/11/01 09:58:03;;;;;;;35.25;27.95;;;16.40;99.90;;;;;;4591922;19;20466;-26
2022/11/01 09:59:42;;;;;;;35.17;28.83;;;16.40;99.90;;;;;;4591820;19;20044;-27
2022/11/01 10:01:40;;;;;;;35.42;28.65;;;16.50;99.90;;;;;;4591930;19;20021;-27
2022/11/01 10:03:32;;;;;;;35.25;27.77;;;16.50;99.90;;;;;;4591138;19;20007;-26
2022/11/01 10:05:30;;;;;;;36.17;28.75;;;16.50;99.90;;;;;;4590924;19;20022;-26
2022/11/01 10:07:26;;;;;;;35.00;26.75;;;16.40;99.90;;;;;;4591055;19;20034;-26
2022/11/01 10:09:38;;;;;;;33.13;27.42;;;16.50;99.90;;;;;;4591058;19;20035;-27
2022/11/01 10:11:34;;;;;;;32.35;26.90;;;16.50;99.90;;;;;;4590077;19;20067;-27
2022/11/01 10:13:26;;;;;;;32.92;27.23;;;16.50;99.90;;;;;;4589549;19;20011;-27
2022/11/01 10:15:21;;;;;;;34.15;26.40;;;16.50;99.90;;;;;;4588954;19;20006;-26
2022/11/01 10:17:16;;;;;;;30.30;25.73;;;16.50;99.90;;;;;;4589259;19;20006;-26
2022/11/01 10:19:06;;;;;;;33.53;25.33;;;16.50;99.90;;;;;;4589912;19;20018;-26
2022/11/01 10:20:42;;;;;;;33.65;25.45;;;16.50;99.90;;;;;;4588633;19;20014;-26
2022/11/01 10:22:28;;;;;;;35.97;27.50;;;16.50;99.90;;;;;;4588618;19;20019;-26
2022/11/01 10:24:15;;;;;;;33.72;28.05;;;16.50;99.90;;;;;;4589020;19;20074;-26
2022/11/01 10:25:53;;;;;;;32.67;27.05;;;16.60;99.90;;;;;;4587927;19;20502;-27
2022/11/01 10:28:06;;;;;;;36.17;28.70;;;16.60;99.90;;;;;;4588251;19;20007;-25
2022/11/01 13:10:32;;;;;;;34.72;24.80;;;16.70;99.90;;;;;;4588885;19;20010;-26
2022/11/01 13:12:21;;;;;;;34.20;25.13;;;16.70;99.90;;;;;;4590201;19;20031;-25
2022/11/01 13:14:18;;;;;;;34.55;25.50;;;16.70;99.90;;;;;;4592073;19;20016;-26
2022/11/01 13:16:03;;;;;;;33.88;26.77;;;16.70;99.90;;;;;;4591907;19;20014;-27
2022/11/01 13:17:43;;;;;;;32.60;25.63;;;16.70;99.90;;;;;;4590610;19;20014;-26
2022/11/01 13:19:23;;;;;;;33.53;25.92;;;16.70;99.90;;;;;;4592463;19;20102;-27
2022/11/01 13:21:04;;;;;;;32.25;25.08;;;16.70;99.90;;;;;;4592895;19;20059;-27
2022/11/01 13:22:53;;;;;;;38.33;30.58;;;16.70;99.90;;;;;;4588360;19;20019;-27
2022/11/01 13:24:35;;;;;;;42.33;32.30;;;16.50;99.90;;;;;;4590004;19;20357;-27
2022/11/01 13:26:26;;;;;;;42.85;32.17;;;15.50;99.90;;;;;;4590360;19;20006;-26
2022/11/01 13:28:17;;;;;;;48.65;35.30;;;15.10;99.90;;;;;;4592832;19;20021;-26
2022/11/01 13:29:51;;;;;;;44.28;32.63;;;15.00;99.90;;;;;;4592601;19;20010;-26
2022/11/01 13:31:33;;;;;;;46.60;33.60;;;15.00;99.90;;;;;;4592709;19;20119;-27
2022/11/01 13:33:33;;;;;;;42.92;32.92;;;14.90;99.90;;;;;;4591790;19;20015;-27
2022/11/01 13:35:22;;;;;;;42.88;31.85;;;14.90;99.90;;;;;;4590774;19;20542;-26
2022/11/01 13:37:20;;;;;;;43.38;32.85;;;14.90;99.90;;;;;;4590261;19;20006;-27
2022/11/01 13:38:55;;;;;;;51.10;38.95;;;14.90;99.90;;;;;;4591123;19;20035;-27
2022/11/01 13:40:33;;;;;;;50.47;36.95;;;14.90;99.90;;;;;;4591048;19;20011;-26
2022/11/01 13:42:15;;;;;;;44.90;35.75;;;14.90;99.90;;;;;;4590407;19;20018;-26
2022/11/01 13:43:56;;;;;;;47.22;35.05;;;14.90;99.90;;;;;;4590726;19;20015;-27
2022/11/01 13:46:15;;;;;;;59.95;47.20;;;14.90;99.90;;;;;;4590542;19;20014;-27
2022/11/01 13:48:00;;;;;;;52.22;38.67;;;14.90;99.90;;;;;;4589997;19;20025;-26
2022/11/01 13:49:37;;;;;;;53.15;40.70;;;14.90;99.90;;;;;;4589077;19;20092;-26
2022/11/01 13:51:43;;;;;;;51.20;40.80;;;14.90;99.90;;;;;;4590479;19;20011;-26
2022/11/01 13:53:20;;;;;;;44.92;36.22;;;14.90;99.90;;;;;;4589800;19;20111;-27
2022/11/01 13:56:58;;;;;;;51.30;39.78;;;14.90;99.90;;;;;;4589715;19;20031;-27
2022/11/01 13:58:32;;;;;;;54.42;40.55;;;14.90;99.90;;;;;;4589376;19;20576;-26
2022/11/01 14:00:05;;;;;;;50.60;37.33;;;14.90;99.90;;;;;;4589183;19;20036;-26
2022/11/01 14:01:39;;;;;;;47.53;35.95;;;14.90;99.90;;;;;;4590141;19;20039;-25
2022/11/01 14:03:28;;;;;;;47.95;34.55;;;14.90;99.90;;;;;;4588160;19;20472;-26
2022/11/01 14:05:10;;;;;;;51.85;37.78;;;14.90;99.90;;;;;;4588848;19;20014;-27
2022/11/01 14:07:04;;;;;;;55.63;42.17;;;14.90;99.90;;;;;;4589564;19;20528;-26
2022/11/01 14:08:39;;;;;;;51.35;41.10;;;14.90;99.90;;;;;;4589818;19;20018;-26
2022/11/01 14:10:18;;;;;;;50.05;38.97;;;14.90;99.90;;;;;;4589901;19;20010;-26
2022/11/01 14:13:44;;;;;;;66.55;53.70;;;14.90;99.90;;;;;;4586419;19;20718;-26
2022/11/01 14:15:19;;;;;;;75.82;60.55;;;14.90;99.90;;;;;;4588391;19;20384;-27
2022/11/01 14:16:50;;;;;;;70.15;55.63;;;14.90;99.90;;;;;;4588967;19;20032;-26
2022/11/01 14:18:21;;;;;;;69.78;54.60;;;14.90;99.90;;;;;;4588962;19;20017;-27
2022/11/01 14:19:57;;;;;;;;;;;14.90;99.90;;;;;;4589650;19;20156;-26
2022/11/01 14:21:41;;;;;;;58.28;42.80;;;14.90;99.90;;;;;;4588450;19;19923;-27
2022/11/01 14:23:27;;;;;;;57.42;43.28;;;14.90;99.90;;;;;;4589180;19;20108;-26
2022/11/01 14:25:11;;;;;;;58.38;46.53;;;14.90;99.90;;;;;;4592512;19;20018;-27
2022/11/01 14:27:00;;;;;;;56.17;43.30;;;14.90;99.90;;;;;;4591468;19;20480;-26
2022/11/01 14:28:32;;;;;;;52.15;40.30;;;14.90;99.90;;;;;;4590683;19;20025;-26
2022/11/01 14:30:16;;;;;;;51.80;39.63;;;14.90;99.90;;;;;;4590278;19;20108;-26
2022/11/01 14:31:47;;;;;;;53.95;38.92;;;14.90;99.90;;;;;;4589212;19;20006;-26
2022/11/01 14:33:19;;;;;;;53.00;38.65;;;14.90;99.90;;;;;;4588846;19;20370;-26
2022/11/01 14:35:01;;;;;;;55.97;40.08;;;14.90;99.90;;;;;;4588125;19;20015;-26
2022/11/01 14:36:33;;;;;;;54.15;39.72;;;14.90;99.90;;;;;;4587956;19;20011;-26
2022/11/01 14:38:17;;;;;;;53.00;39.15;;;14.90;99.90;;;;;;4589835;19;20529;-26
2022/11/01 14:39:50;;;;;;;54.55;39.92;;;14.90;99.90;;;;;;4589572;19;20014;-26
2022/11/01 14:41:21;;;;;;;53.50;40.35;;;14.90;99.90;;;;;;4590303;19;20082;-27
2022/11/01 14:42:54;;;;;;;52.53;39.38;;;14.90;99.90;;;;;;4588807;19;20034;-26
2022/11/01 14:44:30;;;;;;;50.53;37.63;;;14.90;99.90;;;;;;4590113;19;20010;-27
2022/11/01 14:46:05;;;;;;;54.03;39.95;;;14.90;99.90;;;;;;4589057;19;20025;-26
2022/11/01 14:47:38;;;;;;;55.58;40.45;;;14.90;99.90;;;;;;4589949;19;20503;-26
2022/11/01 14:49:15;;;;;;;53.58;39.47;;;14.90;99.90;;;;;;4589052;19;20559;-26
2022/11/01 14:50:49;;;;;;;81.05;61.92;;;14.90;99.90;;;;;;4588914;19;20353;-27
2022/11/01 14:52:27;;;;;;;88.90;64.25;;;14.90;99.90;;;;;;4588765;19;20038;-27
2022/11/01 14:54:39;;;;;;;86.53;63.08;;;14.90;99.90;;;;;;4589317;19;20735;-26
2022/11/01 14:56:10;;;;;;;89.68;66.75;;;14.90;99.90;;;;;;4588247;19;20015;-27
2022/11/01 14:57:41;;;;;;;99.45;73.55;;;14.90;99.90;;;;;;4585631;19;20385;-26
2022/11/01 14:59:18;;;;;;;;;;;14.90;99.90;;;;;;4588328;19;20058;-27
2022/11/01 15:00:50;;;;;;;103.93;76.40;;;14.90;99.90;;;;;;4587349;19;20480;-27
2022/11/01 15:02:24;;;;;;;105.82;79.18;;;14.90;99.90;;;;;;4585728;19;20018;-27
2022/11/01 15:03:56;;;;;;;105.60;79.32;;;14.90;99.90;;;;;;4588011;19;20390;-27
2022/11/01 15:05:27;;;;;;;97.35;71.93;;;14.90;99.90;;;;;;4587940;19;20024;-27
2022/11/01 15:06:59;;;;;;;86.45;64.28;;;14.90;99.90;;;;;;4586738;19;20146;-27
2022/11/01 15:08:36;;;;;;;80.05;58.78;;;14.90;99.90;;;;;;4586025;19;20011;-26
2022/11/01 15:10:11;;;;;;;74.15;57.10;;;14.90;99.90;;;;;;4588892;19;20014;-27
2022/11/01 15:11:42;;;;;;;70.47;52.28;;;14.90;99.90;;;;;;4586028;19;20031;-25
2022/11/01 15:13:14;;;;;;;72.28;52.25;;;14.90;99.90;;;;;;4588153;19;20055;-24
2022/11/01 15:16:31;;;;;;;66.90;50.90;;;14.90;99.90;;;;;;4586399;19;20027;-26
2022/11/01 15:18:04;;;;;;;65.32;48.42;;;14.90;99.90;;;;;;4586996;19;20043;-27
2022/11/01 15:19:37;;;;;;;63.15;47.10;;;14.90;99.90;;;;;;4587751;19;20010;-27
2022/11/01 15:21:10;;;;;;;59.08;46.30;;;14.90;99.90;;;;;;4585924;19;20340;-26
2022/11/01 15:22:41;;;;;;;71.28;55.15;;;14.90;99.90;;;;;;4586155;19;20017;-27
2022/11/01 15:24:20;;;;;;;65.70;51.13;;;14.90;99.90;;;;;;4587745;19;20015;-25
2022/11/01 15:25:52;;;;;;;65.20;50.00;;;14.90;99.90;;;;;;4587207;19;20015;-26
2022/11/01 15:27:30;;;;;;;61.45;46.25;;;15.00;99.90;;;;;;4587037;19;20028;-25
2022/11/01 15:29:04;;;;;;;65.50;50.00;;;15.10;99.90;;;;;;4588001;19;20044;-26
2022/11/01 15:30:35;;;;;;;63.85;45.83;;;15.30;99.90;;;;;;4587924;19;20015;-25
2022/11/01 15:32:22;;;;;;;65.40;49.40;;;15.40;99.90;;;;;;4586360;19;20007;-26
2022/11/01 15:33:58;;;;;;;58.78;45.80;;;15.50;99.90;;;;;;4588558;19;20019;-26
2022/11/01 15:35:31;;;;;;;66.47;52.22;;;15.70;99.90;;;;;;4589723;19;20427;-26
2022/11/01 15:37:21;;;;;;;65.60;51.63;;;15.70;99.90;;;;;;4589707;19;20026;-26
2022/11/01 15:38:55;;;;;;;68.07;49.03;;;15.80;99.90;;;;;;4588608;19;20267;-26
2022/11/01 15:40:33;;;;;;;64.57;45.10;;;15.80;99.90;;;;;;4589197;19;20398;-26
2022/11/01 15:42:14;;;;;;;60.78;44.92;;;15.90;99.90;;;;;;4586252;19;20338;-26
2022/11/01 15:43:53;;;;;;;58.72;44.10;;;15.90;99.90;;;;;;4588259;19;20054;-26
2022/11/01 15:45:24;;;;;;;57.83;43.58;;;16.00;99.90;;;;;;4589293;19;20048;-26
2022/11/01 15:47:20;;;;;;;61.33;44.70;;;16.00;99.90;;;;;;4588894;19;20036;-26
2022/11/01 15:48:52;;;;;;;66.47;47.90;;;16.00;99.90;;;;;;4589093;19;20461;-26
2022/11/01 15:50:23;;;;;;;;;;;16.10;99.90;;;;;;4590137;19;20010;-27
2022/11/01 15:52:29;;;;;;;59.67;44.17;;;16.10;99.90;;;;;;4587244;19;19925;-26
2022/11/01 15:54:05;;;;;;;64.88;47.63;;;16.10;99.90;;;;;;4587386;19;20018;-26
2022/11/01 15:55:42;;;;;;;59.50;46.72;;;16.10;99.90;;;;;;4587204;19;20018;-26
2022/11/01 15:57:20;;;;;;;61.42;48.38;;;16.20;99.90;;;;;;4586453;19;20018;-27
2022/11/01 15:58:55;;;;;;;72.72;53.25;;;16.20;99.90;;;;;;4586168;19;20033;-26
2022/11/01 16:00:39;;;;;;;72.32;56.72;;;16.20;99.90;;;;;;4586812;19;20031;-26
2022/11/01 16:02:14;;;;;;;79.38;60.65;;;16.20;99.90;;;;;;4585436;19;20025;-26
2022/11/01 16:04:07;;;;;;;77.25;64.10;;;16.30;99.90;;;;;;4586045;19;20465;-27
2022/11/01 16:05:48;;;;;;;78.55;63.28;;;16.20;99.90;;;;;;4586225;19;20006;-25
2022/11/01 16:07:19;;;;;;;82.13;65.50;;;16.30;99.90;;;;;;4587265;19;20600;-26
2022/11/01 16:08:54;;;;;;;76.60;65.03;;;16.20;99.90;;;;;;4585395;19;20006;-26
2022/11/01 16:10:25;;;;;;;78.25;64.22;;;16.30;99.90;;;;;;4585409;19;20062;-26
2022/11/01 16:11:57;;;;;;;75.90;61.00;;;16.30;99.90;;;;;;4585522;19;20030;-26
2022/11/01 16:13:28;;;;;;;69.65;54.03;;;16.30;99.90;;;;;;4587181;19;20554;-26
2022/11/01 16:15:00;;;;;;;59.33;44.25;;;16.30;99.90;;;;;;4586587;19;20465;-26
2022/11/01 16:18:22;;;;;;;56.83;40.33;;;16.40;99.90;;;;;;4585924;19;20349;-27
2022/11/01 16:19:53;;;;;;;61.97;43.90;;;16.40;99.90;;;;;;4587019;19;20093;-26
2022/11/01 16:21:24;;;;;;;;;;;16.40;99.90;;;;;;4588571;19;20033;-26
2022/11/01 16:22:57;;;;;;;64.75;43.08;;;16.40;99.90;;;;;;4585139;19;19922;-27
2022/11/01 16:24:28;;;;;;;68.45;43.65;;;16.40;99.90;;;;;;4585968;19;20027;-27